createdAt,value
2018-12-10T00:00:43.634Z,12.60
2018-12-10T00:01:43.587Z,11.70
2018-12-10T00:02:43.534Z,12.90
2018-12-10T00:03:43.529Z,12.50
2018-12-10T00:04:43.502Z,10.90
2018-12-10T00:05:43.552Z,13.30
2018-12-10T00:06:43.480Z,10.80
2018-12-10T00:07:43.558Z,12.50
2018-12-10T00:08:43.470Z,13.50
2018-12-10T00:09:43.465Z,11.60
2018-12-10T00:10:43.429Z,14.80
2018-12-10T00:11:43.485Z,15.90
2018-12-10T00:12:43.437Z,13.70
2018-12-10T00:13:43.451Z,12.80
2018-12-10T00:14:43.462Z,10.60
2018-12-10T00:15:43.383Z,12.10
2018-12-10T00:16:43.372Z,12.40
2018-12-10T00:17:43.363Z,15.80
2018-12-10T00:18:43.370Z,13.30
2018-12-10T00:19:43.324Z,11.20
2018-12-10T00:20:43.321Z,13.20
2018-12-10T00:21:43.281Z,14.20
2018-12-10T00:22:43.308Z,11.50
2018-12-10T00:23:43.310Z,12.60
2018-12-10T00:24:43.295Z,12.60
2018-12-10T00:25:43.300Z,13.90
2018-12-10T00:26:43.278Z,10.70
2018-12-10T00:27:43.236Z,12.80
2018-12-10T00:28:43.286Z,13.10
2018-12-10T00:29:43.208Z,12.10
2018-12-10T00:30:43.208Z,15.10
2018-12-10T00:31:43.286Z,14.00
2018-12-10T00:32:43.264Z,13.40
2018-12-10T00:33:43.172Z,11.40
2018-12-10T00:34:43.169Z,12.90
2018-12-10T00:35:43.149Z,12.70
2018-12-10T00:36:43.174Z,13.20
2018-12-10T00:37:43.139Z,12.90
2018-12-10T00:38:43.130Z,15.70
2018-12-10T00:39:43.127Z,13.70
2018-12-10T00:40:43.190Z,13.90
2018-12-10T00:41:43.085Z,12.80
2018-12-10T00:42:43.067Z,10.30
2018-12-10T00:43:43.055Z,11.20
2018-12-10T00:44:43.050Z,14.70
2018-12-10T00:45:43.076Z,10.30
2018-12-10T00:46:43.046Z,9.70
2018-12-10T00:47:43.057Z,13.60
2018-12-10T00:48:43.030Z,13.10
2018-12-10T00:49:42.993Z,13.50
2018-12-10T00:50:42.981Z,13.70
2018-12-10T00:51:42.982Z,11.90
2018-12-10T00:52:42.964Z,11.50
2018-12-10T00:53:42.968Z,10.40
2018-12-10T00:54:42.957Z,11.20
2018-12-10T00:55:42.939Z,12.20
2018-12-10T00:56:42.929Z,10.30
2018-12-10T00:57:42.940Z,10.00
2018-12-10T00:58:42.921Z,11.20
2018-12-10T00:59:42.879Z,11.40
2018-12-10T01:00:42.901Z,11.40
2018-12-10T01:01:42.880Z,12.50
2018-12-10T01:02:42.909Z,11.50
2018-12-10T01:03:42.836Z,12.00
2018-12-10T01:04:42.842Z,13.30
2018-12-10T01:05:42.839Z,10.00
2018-12-10T01:06:42.858Z,9.90
2018-12-10T01:07:42.801Z,9.70
2018-12-10T01:08:42.841Z,11.70
2018-12-10T01:09:42.798Z,11.30
2018-12-10T01:10:51.815Z,8.90
2018-12-10T01:11:42.784Z,13.60
2018-12-10T01:12:51.840Z,10.50
2018-12-10T01:13:42.748Z,11.30
2018-12-10T01:14:42.742Z,12.10
2018-12-10T01:15:42.751Z,12.00
2018-12-10T01:16:42.685Z,10.10
2018-12-10T01:17:42.690Z,9.90
2018-12-10T01:18:42.675Z,10.50
2018-12-10T01:19:42.668Z,12.60
2018-12-10T01:20:42.683Z,11.50
2018-12-10T01:23:00.062Z,10.20
2018-12-10T01:24:00.029Z,9.50
2018-12-10T01:25:00.013Z,9.80
2018-12-10T01:26:00.019Z,8.00
2018-12-10T01:27:00.045Z,12.10
2018-12-10T01:28:00.018Z,11.60
2018-12-10T01:28:59.996Z,11.70
2018-12-10T01:30:00.022Z,13.10
2018-12-10T01:30:59.994Z,13.30
2018-12-10T01:31:59.945Z,10.90
2018-12-10T01:32:59.957Z,13.50
2018-12-10T01:33:59.930Z,11.20
2018-12-10T01:34:59.930Z,10.30
2018-12-10T01:36:00.075Z,13.10
2018-12-10T01:36:59.901Z,13.10
2018-12-10T01:37:59.896Z,151.90
2018-12-10T01:38:59.890Z,327.90
2018-12-10T01:39:59.918Z,201.70
2018-12-10T01:40:59.917Z,66.00
2018-12-10T01:41:59.856Z,109.00
2018-12-10T01:42:59.856Z,182.60
2018-12-10T01:43:59.841Z,535.30
2018-12-10T01:44:59.831Z,375.70
2018-12-10T01:45:59.801Z,439.60
2018-12-10T01:46:59.780Z,156.10
2018-12-10T01:47:59.799Z,135.40
2018-12-10T01:48:59.770Z,99.80
2018-12-10T01:49:59.800Z,166.20
2018-12-10T01:50:59.779Z,248.90
2018-12-10T01:51:59.747Z,109.10
2018-12-10T01:52:59.740Z,91.80
2018-12-10T01:53:59.750Z,51.80
2018-12-10T01:54:59.705Z,51.60
2018-12-10T01:55:59.731Z,58.10
2018-12-10T01:56:59.678Z,60.90
2018-12-10T01:57:59.680Z,43.80
2018-12-10T01:58:59.667Z,27.00
2018-12-10T01:59:59.665Z,24.60
2018-12-10T02:00:59.663Z,36.40
2018-12-10T02:01:59.654Z,38.10
2018-12-10T02:02:59.662Z,25.80
2018-12-10T02:03:59.619Z,25.30
2018-12-10T02:04:59.592Z,23.90
2018-12-10T02:05:59.597Z,19.00
2018-12-10T02:06:59.604Z,15.60
2018-12-10T02:07:59.576Z,19.10
2018-12-10T02:08:59.562Z,25.30
2018-12-10T02:09:59.580Z,20.10
2018-12-10T02:10:59.535Z,22.10
2018-12-10T02:11:59.592Z,22.90
2018-12-10T02:12:59.551Z,26.40
2018-12-10T02:13:59.517Z,24.60
2018-12-10T02:14:59.494Z,29.80
2018-12-10T02:15:59.511Z,24.80
2018-12-10T02:16:59.510Z,20.40
2018-12-10T02:17:59.469Z,17.90
2018-12-10T02:18:59.470Z,22.80
2018-12-10T02:19:59.456Z,15.20
2018-12-10T02:20:59.443Z,23.50
2018-12-10T02:21:59.410Z,18.00
2018-12-10T02:22:59.402Z,18.20
2018-12-10T02:23:59.414Z,18.50
2018-12-10T02:24:59.396Z,22.00
2018-12-10T02:25:59.375Z,16.40
2018-12-10T02:26:59.394Z,18.70
2018-12-10T02:27:59.371Z,19.30
2018-12-10T02:28:59.381Z,17.70
2018-12-10T02:29:59.422Z,21.70
2018-12-10T02:30:59.335Z,17.70
2018-12-10T02:31:59.329Z,18.00
2018-12-10T02:32:59.333Z,21.20
2018-12-10T02:33:59.294Z,16.90
2018-12-10T02:34:59.330Z,19.20
2018-12-10T02:35:59.280Z,15.10
2018-12-10T02:36:59.260Z,15.80
2018-12-10T02:37:59.253Z,18.00
2018-12-10T02:38:59.264Z,16.50
2018-12-10T02:39:59.215Z,15.90
2018-12-10T02:40:59.222Z,16.00
2018-12-10T02:41:59.217Z,17.30
2018-12-10T02:42:59.192Z,17.30
2018-12-10T02:43:59.194Z,15.90
2018-12-10T02:44:59.196Z,17.50
2018-12-10T02:45:59.208Z,14.80
2018-12-10T02:46:59.156Z,15.70
2018-12-10T02:47:59.172Z,16.10
2018-12-10T02:48:59.145Z,15.70
2018-12-10T02:49:59.177Z,17.80
2018-12-10T02:50:59.112Z,17.60
2018-12-10T02:51:59.128Z,14.10
2018-12-10T02:52:59.093Z,15.10
2018-12-10T02:53:59.104Z,14.50
2018-12-10T02:54:59.084Z,18.20
2018-12-10T02:55:59.101Z,16.10
2018-12-10T02:56:59.059Z,68.30
2018-12-10T02:57:59.059Z,37.40
2018-12-10T02:58:59.032Z,75.60
2018-12-10T02:59:59.043Z,47.30
2018-12-10T03:00:59.019Z,41.00
2018-12-10T03:01:59.035Z,28.00
2018-12-10T03:02:59.016Z,26.90
2018-12-10T03:03:58.992Z,18.50
2018-12-10T03:04:58.971Z,13.10
2018-12-10T03:05:58.973Z,18.20
2018-12-10T03:06:58.980Z,18.40
2018-12-10T03:07:58.979Z,14.40
2018-12-10T03:08:58.920Z,13.70
2018-12-10T03:09:58.932Z,16.70
2018-12-10T03:10:59.059Z,18.50
2018-12-10T03:11:58.910Z,17.20
2018-12-10T03:12:58.878Z,19.20
2018-12-10T03:13:58.873Z,14.70
2018-12-10T03:14:58.893Z,17.10
2018-12-10T03:15:58.862Z,15.60
2018-12-10T03:16:58.860Z,13.60
2018-12-10T03:17:58.825Z,13.60
2018-12-10T03:18:58.910Z,12.70
2018-12-10T03:19:58.796Z,12.70
2018-12-10T03:20:58.816Z,14.80
2018-12-10T03:21:58.820Z,14.90
2018-12-10T03:22:58.831Z,14.20
2018-12-10T03:23:58.754Z,13.10
2018-12-10T03:24:58.751Z,13.60
2018-12-10T03:25:58.745Z,12.20
2018-12-10T03:26:58.772Z,13.50
2018-12-10T03:27:58.762Z,11.90
2018-12-10T03:28:58.780Z,13.00
2018-12-10T03:29:58.731Z,10.20
2018-12-10T03:30:58.705Z,13.50
2018-12-10T03:31:58.799Z,13.90
2018-12-10T03:32:58.694Z,11.60
2018-12-10T03:33:58.719Z,10.80
2018-12-10T03:34:58.653Z,11.90
2018-12-10T03:35:58.631Z,14.20
2018-12-10T03:36:58.627Z,12.00
2018-12-10T03:37:58.779Z,10.60
2018-12-10T03:38:58.589Z,10.50
2018-12-10T03:39:58.614Z,10.70
2018-12-10T03:40:58.585Z,11.00
2018-12-10T03:41:58.591Z,9.30
2018-12-10T03:42:58.573Z,12.80
2018-12-10T03:43:58.549Z,11.70
2018-12-10T03:44:58.550Z,12.00
2018-12-10T03:45:58.629Z,11.90
2018-12-10T03:46:58.567Z,10.60
2018-12-10T03:47:58.598Z,10.40
2018-12-10T03:48:59.414Z,10.80
2018-12-10T03:49:58.589Z,11.40
2018-12-10T03:51:02.459Z,10.20
2018-12-10T03:51:58.459Z,9.70
2018-12-10T03:52:58.462Z,11.30
2018-12-10T03:53:58.443Z,11.60
2018-12-10T03:54:58.474Z,9.20
2018-12-10T03:55:58.412Z,9.90
2018-12-10T03:56:58.474Z,12.00
2018-12-10T03:57:58.403Z,11.30
2018-12-10T03:58:58.938Z,9.20
2018-12-10T03:59:58.411Z,10.60
2018-12-10T04:00:58.440Z,12.20
2018-12-10T04:01:58.417Z,8.80
2018-12-10T04:02:58.340Z,9.60
2018-12-10T04:03:58.331Z,8.90
2018-12-10T04:04:58.942Z,10.30
2018-12-10T04:05:58.313Z,9.20
2018-12-10T04:06:58.318Z,12.10
2018-12-10T04:07:59.351Z,12.90
2018-12-10T04:08:58.268Z,10.20
2018-12-10T04:09:58.277Z,8.70
2018-12-10T04:10:58.285Z,11.10
2018-12-10T04:11:58.279Z,11.00
2018-12-10T04:12:58.293Z,9.70
2018-12-10T04:13:58.214Z,10.30
2018-12-10T04:14:58.229Z,9.20
2018-12-10T04:15:58.196Z,8.00
2018-12-10T04:16:58.218Z,10.60
2018-12-10T04:17:58.234Z,9.80
2018-12-10T04:18:58.199Z,10.90
2018-12-10T04:19:58.156Z,7.60
2018-12-10T04:20:58.155Z,12.10
2018-12-10T04:21:58.203Z,10.70
2018-12-10T04:22:58.146Z,9.80
2018-12-10T04:23:58.132Z,11.60
2018-12-10T04:24:58.107Z,11.00
2018-12-10T04:25:58.138Z,10.80
2018-12-10T04:26:58.086Z,9.10
2018-12-10T04:27:58.089Z,12.20
2018-12-10T04:28:58.103Z,11.30
2018-12-10T04:29:58.058Z,9.60
2018-12-10T04:30:58.073Z,10.10
2018-12-10T04:31:58.045Z,10.20
2018-12-10T04:32:58.070Z,8.60
2018-12-10T04:33:58.020Z,10.50
2018-12-10T04:34:57.996Z,11.30
2018-12-10T04:35:58.215Z,8.70
2018-12-10T04:36:58.106Z,9.80
2018-12-10T04:37:57.973Z,11.60
2018-12-10T04:38:57.973Z,9.10
2018-12-10T04:39:58.000Z,11.40
2018-12-10T04:40:57.942Z,13.50
2018-12-10T04:41:57.936Z,9.50
2018-12-10T04:42:57.929Z,9.60
2018-12-10T04:44:06.963Z,9.70
2018-12-10T04:44:57.890Z,10.10
2018-12-10T04:45:57.870Z,11.00
2018-12-10T04:46:57.890Z,11.80
2018-12-10T04:47:57.852Z,8.40
2018-12-10T04:48:57.837Z,11.50
2018-12-10T04:49:57.846Z,10.70
2018-12-10T04:51:07.988Z,9.30
2018-12-10T04:51:57.840Z,11.10
2018-12-10T04:53:07.015Z,10.90
2018-12-10T04:54:07.084Z,9.90
2018-12-10T04:54:57.780Z,9.50
2018-12-10T04:55:57.767Z,10.30
2018-12-10T04:56:57.744Z,11.40
2018-12-10T04:57:57.760Z,12.50
2018-12-10T04:58:57.745Z,9.30
2018-12-10T05:00:08.426Z,12.20
2018-12-10T05:00:57.703Z,9.40
2018-12-10T05:01:57.706Z,8.70
2018-12-10T05:02:57.739Z,9.80
2018-12-10T05:03:57.696Z,9.50
2018-12-10T05:04:57.710Z,9.80
2018-12-10T05:05:57.652Z,13.90
2018-12-10T05:06:57.644Z,10.10
2018-12-10T05:07:57.632Z,9.00
2018-12-10T05:08:57.658Z,10.10
2018-12-10T05:09:57.617Z,12.20
2018-12-10T05:10:57.612Z,10.80
2018-12-10T05:12:07.094Z,11.40
2018-12-10T05:13:06.659Z,10.70
2018-12-10T05:14:06.184Z,12.40
2018-12-10T05:14:57.571Z,11.40
2018-12-10T05:16:09.199Z,10.10
2018-12-10T05:17:06.783Z,9.70
2018-12-10T05:18:06.812Z,10.20
2018-12-10T05:19:06.309Z,12.30
2018-12-10T05:21:14.922Z,13.10
2018-12-10T05:22:14.907Z,12.40
2018-12-10T05:23:24.312Z,13.20
2018-12-10T05:24:14.955Z,12.60
2018-12-10T05:25:14.889Z,13.10
2018-12-10T05:26:14.850Z,12.60
2018-12-10T05:27:14.884Z,12.50
2018-12-10T05:28:14.850Z,11.80
2018-12-10T05:29:14.827Z,12.80
2018-12-10T05:30:14.871Z,12.70
2018-12-10T05:31:14.813Z,14.00
2018-12-10T05:32:14.820Z,11.20
2018-12-10T05:33:14.782Z,10.10
2018-12-10T05:34:14.790Z,11.10
2018-12-10T05:35:14.759Z,9.80
2018-12-10T05:36:14.798Z,11.70
2018-12-10T05:37:14.744Z,10.80
2018-12-10T05:38:14.727Z,11.80
2018-12-10T05:39:24.842Z,9.00
2018-12-10T05:40:23.877Z,13.50
2018-12-10T05:42:32.115Z,13.20
2018-12-10T05:43:41.514Z,12.30
2018-12-10T05:44:32.106Z,28.40
2018-12-10T05:45:32.080Z,52.60
2018-12-10T05:46:32.087Z,48.00
2018-12-10T05:47:32.078Z,16.50
2018-12-10T05:48:32.030Z,20.80
2018-12-10T05:49:32.031Z,16.70
2018-12-10T05:50:32.052Z,23.80
2018-12-10T05:51:32.093Z,25.30
2018-12-10T05:52:41.042Z,19.80
2018-12-10T05:53:31.983Z,30.10
2018-12-10T05:54:31.981Z,25.40
2018-12-10T05:55:32.002Z,32.60
2018-12-10T05:56:32.024Z,19.40
2018-12-10T05:57:31.972Z,12.70
2018-12-10T05:58:31.974Z,15.20
2018-12-10T05:59:31.960Z,14.00
2018-12-10T06:00:31.924Z,11.30
2018-12-10T06:01:31.900Z,16.50
2018-12-10T06:02:31.920Z,10.60
2018-12-10T06:03:31.920Z,13.30
2018-12-10T06:04:31.895Z,12.90
2018-12-10T06:05:31.867Z,15.50
2018-12-10T06:06:31.862Z,14.10
2018-12-10T06:07:31.851Z,15.20
2018-12-10T06:08:31.827Z,12.20
2018-12-10T06:09:31.842Z,12.00
2018-12-10T06:10:31.841Z,16.10
2018-12-10T06:11:31.806Z,12.50
2018-12-10T06:12:31.796Z,11.40
2018-12-10T06:13:31.797Z,10.80
2018-12-10T06:14:31.779Z,14.90
2018-12-10T06:15:31.814Z,12.70
2018-12-10T06:16:31.812Z,12.70
2018-12-10T06:17:31.744Z,12.30
2018-12-10T06:18:31.905Z,10.70
2018-12-10T06:19:31.742Z,13.30
2018-12-10T06:20:31.731Z,18.00
2018-12-10T06:21:31.709Z,15.50
2018-12-10T06:22:31.691Z,15.30
2018-12-10T06:23:31.732Z,15.20
2018-12-10T06:24:32.483Z,13.00
2018-12-10T06:25:31.976Z,15.30
2018-12-10T06:26:31.724Z,15.80
2018-12-10T06:27:31.719Z,13.60
2018-12-10T06:28:31.683Z,9.90
2018-12-10T06:29:31.915Z,8.40
2018-12-10T06:30:31.757Z,10.10
2018-12-10T06:31:31.736Z,11.80
2018-12-10T06:32:31.965Z,13.10
2018-12-10T06:33:31.725Z,16.80
2018-12-10T06:34:31.741Z,12.70
2018-12-10T06:35:31.760Z,11.10
2018-12-10T06:36:31.589Z,12.40
2018-12-10T06:37:37.510Z,11.30
2018-12-10T06:38:32.618Z,12.90
2018-12-10T06:39:31.557Z,10.20
2018-12-10T06:40:31.552Z,10.80
2018-12-10T06:41:31.597Z,8.70
2018-12-10T06:42:31.568Z,7.70
2018-12-10T06:43:31.495Z,9.20
2018-12-10T06:44:31.501Z,8.40
2018-12-10T06:45:32.487Z,7.70
2018-12-10T06:46:31.454Z,12.90
2018-12-10T06:47:31.456Z,14.30
2018-12-10T06:48:31.487Z,15.40
2018-12-10T06:49:31.489Z,15.50
2018-12-10T06:50:31.451Z,13.40
2018-12-10T06:51:31.435Z,11.90
2018-12-10T06:52:31.492Z,10.80
2018-12-10T06:53:31.396Z,10.00
2018-12-10T06:54:31.377Z,11.20
2018-12-10T06:55:31.374Z,15.60
2018-12-10T06:56:31.501Z,13.60
2018-12-10T06:57:31.569Z,9.50
2018-12-10T06:58:31.391Z,10.40
2018-12-10T06:59:31.396Z,10.50
2018-12-10T07:00:31.436Z,8.70
2018-12-10T07:01:31.313Z,7.90
2018-12-10T07:02:31.309Z,9.00
2018-12-10T07:03:31.306Z,10.50
2018-12-10T07:04:31.312Z,8.60
2018-12-10T07:05:31.255Z,8.80
2018-12-10T07:06:31.280Z,8.10
2018-12-10T07:07:31.237Z,9.80
2018-12-10T07:08:31.220Z,9.40
2018-12-10T07:09:31.226Z,9.30
2018-12-10T07:10:31.234Z,8.40
2018-12-10T07:11:31.192Z,9.10
2018-12-10T07:12:31.263Z,8.30
2018-12-10T07:13:31.210Z,10.30
2018-12-10T07:14:31.189Z,9.00
2018-12-10T07:15:31.173Z,10.10
2018-12-10T07:16:31.174Z,13.10
2018-12-10T07:17:31.134Z,7.90
2018-12-10T07:18:31.142Z,7.50
2018-12-10T07:19:31.114Z,8.80
2018-12-10T07:20:31.160Z,8.00
2018-12-10T07:21:31.113Z,10.40
2018-12-10T07:22:31.097Z,10.90
2018-12-10T07:23:31.069Z,8.90
2018-12-10T07:24:31.076Z,10.60
2018-12-10T07:25:31.059Z,14.00
2018-12-10T07:26:31.040Z,10.50
2018-12-10T07:27:31.079Z,11.30
2018-12-10T07:28:31.011Z,20.80
2018-12-10T07:29:31.022Z,16.60
2018-12-10T07:30:31.014Z,14.40
2018-12-10T07:31:30.988Z,12.50
2018-12-10T07:32:31.023Z,16.00
2018-12-10T07:33:30.972Z,18.20
2018-12-10T07:34:30.969Z,18.70
2018-12-10T07:35:30.967Z,12.90
2018-12-10T07:36:31.061Z,10.70
2018-12-10T07:37:30.981Z,13.00
2018-12-10T07:38:30.938Z,10.80
2018-12-10T07:39:30.943Z,12.70
2018-12-10T07:40:30.878Z,11.90
2018-12-10T07:41:30.933Z,15.90
2018-12-10T07:42:30.902Z,13.60
2018-12-10T07:43:30.879Z,12.80
2018-12-10T07:44:30.923Z,13.20
2018-12-10T07:45:30.879Z,21.70
2018-12-10T07:46:30.933Z,27.70
2018-12-10T07:47:30.839Z,28.90
2018-12-10T07:48:30.911Z,36.00
2018-12-10T07:49:30.798Z,25.10
2018-12-10T07:50:31.332Z,20.50
2018-12-10T07:51:30.804Z,17.60
2018-12-10T07:52:30.865Z,20.20
2018-12-10T07:53:30.776Z,19.60
2018-12-10T07:54:30.745Z,18.60
2018-12-10T07:55:30.912Z,15.50
2018-12-10T07:56:30.757Z,12.40
2018-12-10T07:57:30.705Z,11.90
2018-12-10T07:58:30.733Z,19.60
2018-12-10T07:59:30.751Z,11.80
2018-12-10T08:00:30.702Z,14.50
2018-12-10T08:01:30.763Z,11.80
2018-12-10T08:02:30.813Z,10.40
2018-12-10T08:03:30.652Z,16.30
2018-12-10T08:04:30.649Z,15.90
2018-12-10T08:05:30.659Z,14.70
2018-12-10T08:06:30.607Z,15.10
2018-12-10T08:07:30.639Z,17.80
2018-12-10T08:08:30.707Z,16.90
2018-12-10T08:09:30.604Z,10.30
2018-12-10T08:10:30.592Z,8.20
2018-12-10T08:11:30.621Z,15.10
2018-12-10T08:12:30.586Z,12.70
2018-12-10T08:13:30.572Z,16.10
2018-12-10T08:14:30.587Z,13.10
2018-12-10T08:15:30.531Z,12.90
2018-12-10T08:16:30.548Z,11.80
2018-12-10T08:17:30.597Z,11.90
2018-12-10T08:18:30.560Z,12.60
2018-12-10T08:19:30.536Z,16.10
2018-12-10T08:20:30.533Z,12.40
2018-12-10T08:21:30.452Z,14.50
2018-12-10T08:22:30.465Z,10.10
2018-12-10T08:23:30.545Z,13.90
2018-12-10T08:24:30.466Z,13.30
2018-12-10T08:25:30.419Z,11.70
2018-12-10T08:26:30.441Z,11.20
2018-12-10T08:27:30.474Z,11.70
2018-12-10T08:28:30.399Z,10.90
2018-12-10T08:29:30.420Z,10.10
2018-12-10T08:30:30.411Z,11.90
2018-12-10T08:31:30.470Z,14.70
2018-12-10T08:32:30.342Z,15.40
2018-12-10T08:33:30.390Z,11.30
2018-12-10T08:34:30.354Z,12.50
2018-12-10T08:35:30.430Z,12.30
2018-12-10T08:36:30.341Z,15.50
2018-12-10T08:37:30.291Z,10.80
2018-12-10T08:38:30.306Z,12.70
2018-12-10T08:39:30.269Z,15.40
2018-12-10T08:40:30.264Z,12.20
2018-12-10T08:41:30.381Z,13.40
2018-12-10T08:42:30.282Z,13.30
2018-12-10T08:43:30.282Z,11.60
2018-12-10T08:44:30.278Z,12.70
2018-12-10T08:45:30.209Z,12.90
2018-12-10T08:46:30.231Z,12.70
2018-12-10T08:47:30.249Z,13.80
2018-12-10T08:48:30.219Z,12.50
2018-12-10T08:49:30.207Z,10.90
2018-12-10T08:50:30.161Z,10.90
2018-12-10T08:51:30.153Z,18.50
2018-12-10T08:52:30.147Z,15.80
2018-12-10T08:53:30.148Z,11.40
2018-12-10T08:54:30.195Z,14.00
2018-12-10T08:55:30.209Z,10.40
2018-12-10T08:56:30.087Z,11.40
2018-12-10T08:57:30.136Z,11.50
2018-12-10T08:58:30.074Z,18.60
2018-12-10T08:59:30.113Z,15.20
2018-12-10T09:00:30.080Z,10.80
2018-12-10T09:01:30.078Z,10.20
2018-12-10T09:02:30.021Z,10.40
2018-12-10T09:03:30.061Z,10.30
2018-12-10T09:04:30.125Z,13.00
2018-12-10T09:05:30.978Z,12.50
2018-12-10T09:06:29.995Z,11.80
2018-12-10T09:07:29.975Z,13.40
2018-12-10T09:08:30.053Z,12.90
2018-12-10T09:09:29.980Z,13.80
2018-12-10T09:10:30.016Z,14.50
2018-12-10T09:11:30.063Z,11.60
2018-12-10T09:12:29.988Z,12.10
2018-12-10T09:13:29.934Z,11.80
2018-12-10T09:14:29.921Z,14.20
2018-12-10T09:15:29.954Z,14.00
2018-12-10T09:16:29.931Z,12.40
2018-12-10T09:17:30.009Z,12.30
2018-12-10T09:18:29.860Z,10.60
2018-12-10T09:19:29.883Z,12.30
2018-12-10T09:20:38.606Z,11.00
2018-12-10T09:21:39.597Z,15.80
2018-12-10T09:22:29.889Z,13.70
2018-12-10T09:23:29.827Z,11.60
2018-12-10T09:24:29.804Z,11.50
2018-12-10T09:25:29.798Z,11.00
2018-12-10T09:26:29.780Z,15.00
2018-12-10T09:27:29.817Z,12.80
2018-12-10T09:28:29.787Z,15.80
2018-12-10T09:29:29.782Z,17.90
2018-12-10T09:30:29.787Z,13.70
2018-12-10T09:31:29.738Z,13.00
2018-12-10T09:32:29.777Z,12.90
2018-12-10T09:33:29.783Z,11.50
2018-12-10T09:34:29.714Z,11.50
2018-12-10T09:35:29.719Z,14.50
2018-12-10T09:36:29.709Z,11.50
2018-12-10T09:37:29.723Z,11.50
2018-12-10T09:38:29.691Z,12.70
2018-12-10T09:39:30.288Z,13.00
2018-12-10T09:40:29.650Z,14.50
2018-12-10T09:41:29.634Z,12.80
2018-12-10T09:42:29.619Z,11.60
2018-12-10T09:43:29.645Z,8.80
2018-12-10T09:44:29.685Z,12.60
2018-12-10T09:45:29.623Z,12.10
2018-12-10T09:46:29.598Z,12.90
2018-12-10T09:47:29.602Z,10.20
2018-12-10T09:48:29.592Z,11.00
2018-12-10T09:49:29.554Z,15.70
2018-12-10T09:50:29.622Z,15.50
2018-12-10T09:51:29.526Z,12.60
2018-12-10T09:52:29.547Z,12.60
2018-12-10T09:53:29.504Z,11.00
2018-12-10T09:54:29.525Z,13.80
2018-12-10T09:55:29.570Z,11.80
2018-12-10T09:56:29.483Z,10.20
2018-12-10T09:57:29.472Z,12.40
2018-12-10T09:58:29.464Z,12.20
2018-12-10T09:59:29.451Z,12.50
2018-12-10T10:00:29.427Z,10.30
2018-12-10T10:01:29.516Z,13.50
2018-12-10T10:02:29.454Z,13.70
2018-12-10T10:03:29.437Z,14.40
2018-12-10T10:04:29.431Z,13.00
2018-12-10T10:05:29.406Z,11.80
2018-12-10T10:06:29.344Z,9.70
2018-12-10T10:07:29.363Z,10.60
2018-12-10T10:08:29.342Z,13.60
2018-12-10T10:09:29.351Z,12.00
2018-12-10T10:10:29.343Z,11.30
2018-12-10T10:11:29.339Z,9.20
2018-12-10T10:12:29.354Z,9.00
2018-12-10T10:13:29.426Z,13.70
2018-12-10T10:14:29.295Z,10.30
2018-12-10T10:15:29.302Z,9.30
2018-12-10T10:16:29.293Z,10.20
2018-12-10T10:17:29.238Z,10.50
2018-12-10T10:18:29.226Z,9.80
2018-12-10T10:19:29.234Z,11.20
2018-12-10T10:20:29.217Z,12.30
2018-12-10T10:21:29.193Z,10.70
2018-12-10T10:22:29.190Z,12.50
2018-12-10T10:23:29.179Z,11.10
2018-12-10T10:24:29.183Z,12.30
2018-12-10T10:25:29.161Z,12.60
2018-12-10T10:26:29.149Z,12.50
2018-12-10T10:27:29.124Z,12.20
2018-12-10T10:28:29.145Z,14.00
2018-12-10T10:29:29.125Z,14.20
2018-12-10T10:30:29.118Z,11.80
2018-12-10T10:31:29.086Z,11.70
2018-12-10T10:32:29.084Z,11.00
2018-12-10T10:33:32.494Z,11.90
2018-12-10T10:34:29.059Z,12.80
2018-12-10T10:35:29.106Z,10.70
2018-12-10T10:36:29.080Z,12.10
2018-12-10T10:37:29.029Z,16.60
2018-12-10T10:38:29.021Z,12.70
2018-12-10T10:39:29.041Z,14.30
2018-12-10T10:40:29.034Z,13.40
2018-12-10T10:41:31.332Z,14.70
2018-12-10T10:42:28.974Z,11.70
2018-12-10T10:43:28.962Z,12.40
2018-12-10T10:44:28.984Z,14.90
2018-12-10T10:45:34.707Z,16.40
2018-12-10T10:46:29.997Z,11.70
2018-12-10T10:47:28.921Z,11.00
2018-12-10T10:48:28.912Z,13.00
2018-12-10T10:49:28.906Z,11.40
2018-12-10T10:50:28.895Z,10.30
2018-12-10T10:51:28.882Z,12.30
2018-12-10T10:52:33.160Z,15.10
2018-12-10T10:53:28.860Z,17.10
2018-12-10T10:54:29.078Z,17.50
2018-12-10T10:55:28.911Z,14.40
2018-12-10T10:56:28.961Z,15.30
2018-12-10T10:57:28.845Z,12.70
2018-12-10T10:58:28.831Z,12.70
2018-12-10T10:59:28.811Z,9.90
2018-12-10T11:00:28.821Z,11.00
2018-12-10T11:01:28.790Z,11.90
2018-12-10T11:02:28.755Z,11.80
2018-12-10T11:03:28.830Z,11.20
2018-12-10T11:04:37.085Z,12.00
2018-12-10T11:05:29.765Z,13.20
2018-12-10T11:06:28.743Z,10.10
2018-12-10T11:07:29.646Z,11.50
2018-12-10T11:08:28.733Z,11.80
2018-12-10T11:09:28.735Z,11.70
2018-12-10T11:10:28.701Z,14.60
2018-12-10T11:11:28.675Z,13.60
2018-12-10T11:12:28.679Z,12.30
2018-12-10T11:13:28.661Z,10.50
2018-12-10T11:14:28.630Z,9.60
2018-12-10T11:15:28.719Z,11.20
2018-12-10T11:16:28.635Z,10.90
2018-12-10T11:17:28.630Z,10.60
2018-12-10T11:18:28.662Z,11.30
2018-12-10T11:19:28.600Z,10.40
2018-12-10T11:20:28.624Z,10.40
2018-12-10T11:21:28.581Z,9.10
2018-12-10T11:22:28.554Z,10.80
2018-12-10T11:23:28.560Z,12.90
2018-12-10T11:24:28.557Z,10.30
2018-12-10T11:25:28.652Z,10.50
2018-12-10T11:26:28.590Z,13.00
2018-12-10T11:27:28.507Z,10.90
2018-12-10T11:28:28.482Z,9.50
2018-12-10T11:29:28.491Z,10.30
2018-12-10T11:30:28.550Z,11.40
2018-12-10T11:31:28.493Z,12.30
2018-12-10T11:32:28.461Z,11.10
2018-12-10T11:33:28.458Z,13.40
2018-12-10T11:34:28.430Z,8.70
2018-12-10T11:35:28.439Z,11.20
2018-12-10T11:36:28.408Z,9.40
2018-12-10T11:37:28.426Z,10.60
2018-12-10T11:38:28.462Z,11.30
2018-12-10T11:39:28.379Z,12.30
2018-12-10T11:40:28.404Z,10.60
2018-12-10T11:41:28.394Z,10.90
2018-12-10T11:42:28.360Z,12.70
2018-12-10T11:43:28.342Z,10.50
2018-12-10T11:44:28.331Z,9.00
2018-12-10T11:45:28.319Z,13.60
2018-12-10T11:46:28.372Z,11.30
2018-12-10T11:47:28.495Z,16.70
2018-12-10T11:48:28.308Z,15.20
2018-12-10T11:49:28.290Z,11.70
2018-12-10T11:50:28.261Z,12.80
2018-12-10T11:51:28.293Z,14.60
2018-12-10T11:52:28.239Z,11.30
2018-12-10T11:53:28.237Z,12.30
2018-12-10T11:54:28.260Z,10.10
2018-12-10T11:55:28.233Z,13.80
2018-12-10T11:56:28.247Z,10.30
2018-12-10T11:57:28.227Z,12.80
2018-12-10T11:58:28.191Z,12.90
2018-12-10T11:59:28.222Z,12.70
2018-12-10T12:00:29.608Z,9.40
2018-12-10T12:01:28.181Z,11.20
2018-12-10T12:02:29.842Z,9.50
2018-12-10T12:03:28.210Z,10.50
2018-12-10T12:04:28.140Z,9.30
2018-12-10T12:05:28.169Z,10.30
2018-12-10T12:06:28.114Z,11.80
2018-12-10T12:07:28.067Z,11.00
2018-12-10T12:08:28.084Z,10.10
2018-12-10T12:09:28.067Z,17.90
2018-12-10T12:10:28.076Z,21.30
2018-12-10T12:11:28.063Z,17.80
2018-12-10T12:12:28.064Z,17.60
2018-12-10T12:13:28.043Z,12.50
2018-12-10T12:14:28.010Z,10.30
2018-12-10T12:15:28.005Z,13.00
2018-12-10T12:16:27.992Z,9.50
2018-12-10T12:17:27.974Z,10.60
2018-12-10T12:18:28.019Z,9.80
2018-12-10T12:19:27.961Z,11.60
2018-12-10T12:20:28.853Z,9.40
2018-12-10T12:21:28.537Z,13.10
2018-12-10T12:22:28.372Z,14.00
2018-12-10T12:23:29.550Z,8.40
2018-12-10T12:24:27.960Z,12.30
2018-12-10T12:25:27.897Z,12.70
2018-12-10T12:26:27.906Z,11.30
2018-12-10T12:27:27.965Z,10.20
2018-12-10T12:28:27.875Z,9.90
2018-12-10T12:29:27.885Z,9.90
2018-12-10T12:30:27.852Z,10.00
2018-12-10T12:31:27.840Z,9.10
2018-12-10T12:32:27.840Z,10.60
2018-12-10T12:33:27.834Z,12.40
2018-12-10T12:34:27.805Z,11.70
2018-12-10T12:35:27.813Z,10.00
2018-12-10T12:36:27.759Z,9.90
2018-12-10T12:37:27.761Z,10.80
2018-12-10T12:38:27.751Z,7.50
2018-12-10T12:39:27.743Z,11.40
2018-12-10T12:40:27.740Z,9.60
2018-12-10T12:41:27.767Z,11.60
2018-12-10T12:42:27.776Z,9.80
2018-12-10T12:43:27.756Z,10.40
2018-12-10T12:44:27.805Z,13.40
2018-12-10T12:45:27.684Z,10.00
2018-12-10T12:46:27.671Z,8.70
2018-12-10T12:47:27.655Z,8.80
2018-12-10T12:48:27.666Z,7.00
2018-12-10T12:49:27.876Z,11.20
2018-12-10T12:50:27.728Z,7.90
2018-12-10T12:51:27.605Z,7.90
2018-12-10T12:52:27.634Z,7.70
2018-12-10T12:53:27.609Z,11.90
2018-12-10T12:54:27.580Z,10.10
2018-12-10T12:55:27.566Z,10.50
2018-12-10T12:56:27.571Z,10.10
2018-12-10T12:57:27.524Z,9.80
2018-12-10T12:58:27.535Z,12.40
2018-12-10T12:59:27.573Z,10.00